AGROMETEOROLOŠKI PORTAL

vinorodna pokrajina

Temelj dobrega kmetovanja

Pregled podatkov za lokacijo Portorož-letališče ARSO, meteorološka postaja 108

Pregled senzorjev na lokaciji

ID Ime Zadnja
vrednost
Datum in čas
meritve
(lokalni čas)
Tip
senzorja
6043 Zračni tlak (hPa) 1019 hPa 1.2.2023 14:00 ARSO
2415 Sončno sevanje (W/m2) 159 W/m2 1.2.2023 14:00 ARSO
2421 Padavine (mm) 0 mm 1.2.2023 14:00 ARSO
2409 Relativna zračna vlaga (2 m) (% RH) 71 % RH 1.2.2023 14:00 ARSO
2412 Temperatura tal (5 cm) (°C) 6,7 °C 1.2.2023 14:00 ARSO
2413 Temperatura tal (10 cm) (°C) 6 °C 1.2.2023 14:00 ARSO
2414 Temperatura tal (30 cm) (°C) 6,5 °C 1.2.2023 14:00 ARSO
2406 Temperatura (2 m) (°C) 9,6 °C 1.2.2023 14:00 ARSO
2417 Smer vetra (2 m) (°) 212 ° 1.2.2023 14:00 ARSO
2416 Hitrost vetra (2 m) (km/h) 15 km/h 1.2.2023 14:00 ARSO

Pregled podatkov zadnjih 24 ur

Zap.
št.
Datum in čas
(lokalni čas)
Portorož-letališče ARSO
Zračni
tlak
Sončno
sevanje
Padavine Relativna
zračna
vlaga
(2
m)
Temperatura
tal
(5
cm)
Temperatura
tal
(10
cm)
Temperatura
tal
(30
cm)
Temperatura
(2
m)
Smer
vetra
(2
m)
Hitrost
vetra
(2
m)
1 1.2.2023 14:00 1019,2 159 0 71 6,7 6 6,5 9,6 212 15
2 1.2.2023 13:30 1019,6 204 0 70 6,5 5,8 6,5 10,4 212 12
3 1.2.2023 13:00 1020,1 238 0 70 6,2 5,6 6,6 10,5 248 8
4 1.2.2023 12:30 1020,1 360 0 63 5,8 5,4 6,6 11,2 208 8
5 1.2.2023 12:00 1020,3 349 0 65 5,4 5,2 6,6 10,7 200 5
6 1.2.2023 11:30 1020,6 267 0 66 5,1 5 6,6 10,3 193 9
7 1.2.2023 11:00 1020,6 325 0 67 4,7 4,9 6,6 10,1 188 7
8 1.2.2023 10:30 1020,4 298 0 72 4,4 4,8 6,6 8,5 158 3
9 1.2.2023 10:00 1020,4 184 0 79 4,2 4,7 6,6 5,4 128 9
10 1.2.2023 09:30 1020,7 144 0 84 4 4,7 6,6 3,8 129 12
11 1.2.2023 09:00 1020,6 110 0 86 3,9 4,7 6,6 3 125 14
12 1.2.2023 08:30 1020,7 58 0 89 3,9 4,7 6,6 1,5 124 15
13 1.2.2023 08:00 1020,6 17 0 90 4 4,8 6,7 1,3 125 14
14 1.2.2023 07:30 1020,4 1 0 90 4 4,8 6,7 0,8 125 16
15 1.2.2023 07:00 1020,4 0 0 88 4 4,8 6,7 1,2 124 14
16 1.2.2023 06:30 1020,4 0 0 86 4,1 4,8 6,7 1,9 125 17
17 1.2.2023 06:00 1020,5 0 0 82 4,1 4,8 6,7 2,3 123 16
18 1.2.2023 05:30 1020,6 0 0 84 4,1 4,8 6,7 1,4 124 17
19 1.2.2023 05:00 1020,4 0 0 83 4,1 4,9 6,7 1,8 125 15
20 1.2.2023 04:30 1020,3 0 0 83 4,1 4,9 6,7 1,3 122 18
21 1.2.2023 04:00 1020,5 0 0 87 4,1 4,9 6,7 1 126 16
22 1.2.2023 03:30 1020,7 0 0 89 4,2 5 6,7 0,3 124 14
23 1.2.2023 03:00 1020,9 0 0 87 4,2 5 6,7 0,7 127 13
24 1.2.2023 02:30 1021 0 0 88 4,3 5,1 6,8 0,6 124 15
25 1.2.2023 02:00 1021 0 0 87 4,3 5,1 6,8 1,2 125 17
26 1.2.2023 01:30 1021,2 0 0 83 4,4 5,2 6,8 1,5 126 13
27 1.2.2023 01:00 1021,2 0 0 85 4,4 5,2 6,8 1 126 13
28 1.2.2023 00:30 1021,3 0 0 80 4,5 5,3 6,8 2 123 14
29 1.2.2023 00:00 1021,3 0 0 77 4,6 5,3 6,8 2 122 16
30 31.1.2023 23:30 1021,7 0 0 76 4,7 5,4 6,8 1,2 126 16
31 31.1.2023 23:00 1021,9 0 0 75 4,7 5,5 6,8 1,4 126 15
32 31.1.2023 22:30 1021,7 0 0 69 4,8 5,6 6,8 1,9 123 19
33 31.1.2023 22:00 1022,1 0 0 73 4,9 5,6 6,7 1,3 126 18
34 31.1.2023 21:30 1022,2 0 0 75 5 5,7 6,7 1,2 128 16
35 31.1.2023 21:00 1022 0 0 79 5,2 5,9 6,7 1,2 121 12
36 31.1.2023 20:30 1021,5 0 0 77 5,3 5,9 6,7 1,9 119 4
37 31.1.2023 20:00 1021,4 0 0 76 5,5 6 6,7 2,3 118 8
38 31.1.2023 19:30 1021,4 0 0 72 5,7 6,1 6,7 3 137 11
39 31.1.2023 19:00 1021,3 0 0 71 5,8 6,2 6,6 3,6 131 10
40 31.1.2023 18:30 1021,6 0 0 72 6 6,3 6,6 4,2 131 10
41 31.1.2023 18:00 1021,8 0 0 69 6,2 6,4 6,6 6,6 132 9
42 31.1.2023 17:30 1022 2 0 63 6,4 6,5 6,6 8,6 101 4
43 31.1.2023 17:00 1022 15 0 60 6,6 6,5 6,6 8,9 327 3
44 31.1.2023 16:30 1021,8 79 0 47 6,8 6,5 6,5 10,1 267 6
45 31.1.2023 16:00 1021,6 180 0 37 6,8 6,4 6,5 11,9 228 2
46 31.1.2023 15:30 1021,9 248 0 37 6,9 6,3 6,5 11,9 262 3
47 31.1.2023 15:00 1022 310 0 30 6,8 6,1 6,5 12,3 329 4